Tarlton, Ohio
Current Conditions -  °F | °C
As of 3:53 AM on Saturday 29 Nov 2014 (Local Time) from KLHQ Reporting Station
Clear Clear  
Wind Chill: 24°   Ceiling: Unl
Heat Index: 31°   Visibility: 10mi
Dew Point: 20°   Wind: 7mph
Humidity: 64%   Direction: 140°SE
Pressure: 30.1"   Gusts: NA
Location:  39.56°N, 82.78°W
Report Text: KLHQ 290853Z AUTO 14006KT 10SM CLR M01/M07 A3010 RMK AO2 SLP200 T10061067 56007
Loading
Personal Weather Stations






























Interactive Weather Map New forecast layout! Learn more

10-Day Weather Forecast

Advertisements
Track Severe Weather on mobile